Time;durP1;ratioP1;P1;durP2;ratioP2;P2;SDS_P1;SDS_P2;PMS_P1;PMS_P2;Temp;Humidity;BMP_temperature;BMP_pressure;BME280_temperature;BME280_humidity;BME280_pressure;Samples;Min_cycle;Max_cycle;Signal;HPM_P1;HPM_P2
2022/02/16 00:01:08;;;;;;;1.10;0.87;;;5.10;99.90;;;;;;4973375;28;20190;-72
2022/02/16 00:03:33;;;;;;;4.67;1.10;;;5.10;99.90;;;;;;4973074;28;20426;-72
2022/02/16 00:05:59;;;;;;;1.77;1.10;;;5.20;99.90;;;;;;4973339;28;20433;-73
2022/02/16 00:08:24;;;;;;;2.87;1.03;;;5.10;99.90;;;;;;4973115;28;20206;-72
2022/02/16 00:10:50;;;;;;;2.00;0.93;;;5.10;99.90;;;;;;4973305;28;20182;-72
2022/02/16 00:13:16;;;;;;;4.33;0.90;;;5.10;99.90;;;;;;4972983;28;20184;-76
2022/02/16 00:15:41;;;;;;;1.27;0.90;;;5.10;99.90;;;;;;4973177;28;20174;-73
2022/02/16 00:18:07;;;;;;;1.60;0.87;;;5.20;99.90;;;;;;4972993;28;20189;-74
2022/02/16 00:20:33;;;;;;;2.93;0.77;;;5.20;99.90;;;;;;4973009;28;20185;-74
2022/02/16 00:22:58;;;;;;;1.63;1.00;;;5.20;99.90;;;;;;4972716;28;20489;-75
2022/02/16 00:25:24;;;;;;;2.33;0.93;;;5.20;99.90;;;;;;4972893;28;20279;-74
2022/02/16 00:27:49;;;;;;;1.33;0.67;;;5.20;99.90;;;;;;4972821;28;20205;-73
2022/02/16 00:30:15;;;;;;;0.70;0.70;;;5.20;99.90;;;;;;4972781;28;20179;-75
2022/02/16 00:32:40;;;;;;;2.30;1.03;;;5.30;99.90;;;;;;4972444;28;20212;-74
2022/02/16 00:35:06;;;;;;;1.33;0.80;;;5.30;99.90;;;;;;4972568;28;20266;-74
2022/02/16 00:37:32;;;;;;;3.23;0.70;;;5.30;99.90;;;;;;4972916;28;20223;-73
2022/02/16 00:39:57;;;;;;;2.20;0.97;;;5.30;99.90;;;;;;4971522;28;20564;-75
2022/02/16 00:42:23;;;;;;;0.90;0.70;;;5.40;99.90;;;;;;4972700;28;20201;-74
2022/02/16 00:44:49;;;;;;;0.93;0.80;;;5.40;99.90;;;;;;4972700;28;20678;-74
2022/02/16 00:47:14;;;;;;;1.43;1.00;;;5.50;99.90;;;;;;4972513;28;20210;-74
2022/02/16 00:49:40;;;;;;;3.77;1.27;;;5.50;99.90;;;;;;4972803;28;20221;-74
2022/02/16 00:52:06;;;;;;;2.77;1.03;;;5.60;99.90;;;;;;4972343;28;20226;-74
2022/02/16 00:54:32;;;;;;;8.10;1.20;;;5.50;99.90;;;;;;4972627;28;20193;-73
2022/02/16 00:57:01;;;;;;;2.50;1.10;;;5.60;99.90;;;;;;4972607;28;20415;-74
2022/02/16 00:59:30;;;;;;;2.43;0.80;;;5.60;99.90;;;;;;4972721;28;20798;-73
2022/02/16 05:31:57;;;;;;;0.70;0.50;;;6.20;99.90;;;;;;5480071;23;20510;-71
2022/02/16 05:34:22;;;;;;;1.53;0.60;;;6.30;99.90;;;;;;4991909;28;20444;-72
2022/02/16 05:36:48;;;;;;;1.47;0.50;;;6.20;99.90;;;;;;4995021;28;20186;-74
2022/02/16 05:39:13;;;;;;;1.00;0.43;;;6.30;99.90;;;;;;4995510;28;20236;-72
2022/02/16 05:41:39;;;;;;;2.83;0.60;;;6.20;99.90;;;;;;4995294;28;20208;-73
2022/02/16 05:44:05;;;;;;;0.83;0.50;;;6.30;99.90;;;;;;4995099;28;20179;-73
2022/02/16 05:46:30;;;;;;;0.57;0.50;;;6.20;99.90;;;;;;4995120;28;20752;-74
2022/02/16 05:48:56;;;;;;;0.90;0.40;;;6.30;99.90;;;;;;4995170;28;20221;-73
2022/02/16 05:51:21;;;;;;;1.10;0.50;;;6.30;99.90;;;;;;4994908;28;20234;-73
2022/02/16 05:53:47;;;;;;;0.40;0.40;;;6.30;99.90;;;;;;4994867;28;20200;-73
2022/02/16 05:56:13;;;;;;;1.10;0.60;;;6.20;99.90;;;;;;4995345;28;20180;-72
2022/02/16 05:58:39;;;;;;;1.33;0.50;;;6.20;99.90;;;;;;4995162;28;20639;-73
2022/02/16 06:01:04;;;;;;;0.53;0.50;;;6.20;99.90;;;;;;4995037;28;20286;-73
2022/02/16 06:03:30;;;;;;;0.60;0.50;;;6.20;99.90;;;;;;4974296;28;20507;-74
2022/02/16 06:05:55;;;;;;;1.13;0.40;;;6.20;99.90;;;;;;4975832;28;20176;-73
2022/02/16 06:08:21;;;;;;;0.70;0.50;;;6.30;99.90;;;;;;4966342;28;20205;-74
2022/02/16 06:10:46;;;;;;;0.40;0.40;;;6.30;99.90;;;;;;4967729;28;20247;-73
2022/02/16 06:13:13;;;;;;;0.60;0.40;;;6.30;99.90;;;;;;4975462;28;20176;-73
2022/02/16 06:15:39;;;;;;;0.97;0.50;;;6.30;99.90;;;;;;4975216;28;20177;-74
2022/02/16 06:18:05;;;;;;;1.03;0.50;;;6.30;99.90;;;;;;4975251;28;20792;-73
2022/02/16 06:20:30;;;;;;;0.63;0.60;;;6.30;99.90;;;;;;4972161;28;20197;-74
2022/02/16 06:22:56;;;;;;;0.50;0.50;;;6.30;99.90;;;;;;4971441;28;20220;-72
2022/02/16 06:25:23;;;;;;;1.70;0.50;;;6.40;99.90;;;;;;4974872;28;20186;-72
2022/02/16 06:27:49;;;;;;;0.77;0.50;;;6.40;99.90;;;;;;4971789;28;20805;-72
2022/02/16 06:30:15;;;;;;;1.50;0.40;;;6.40;99.90;;;;;;4973355;28;20424;-71
2022/02/16 06:32:42;;;;;;;0.50;0.50;;;6.40;99.90;;;;;;4973454;28;20459;-72
2022/02/16 06:35:08;;;;;;;0.70;0.53;;;6.40;99.90;;;;;;4974268;28;20180;-71
2022/02/16 06:37:33;;;;;;;0.60;0.50;;;6.50;99.90;;;;;;4974685;28;20411;-71
2022/02/16 06:39:59;;;;;;;0.90;0.50;;;6.50;99.90;;;;;;4974451;28;20184;-70
2022/02/16 06:42:24;;;;;;;0.57;0.57;;;6.40;99.90;;;;;;4974585;28;20193;-72
2022/02/16 06:44:50;;;;;;;1.40;0.50;;;6.50;99.90;;;;;;4974486;28;20178;-72
2022/02/16 06:47:16;;;;;;;0.50;0.50;;;6.50;99.90;;;;;;4974640;28;20173;-71
2022/02/16 06:49:41;;;;;;;0.57;0.47;;;6.50;99.90;;;;;;4974468;28;20180;-72
2022/02/16 06:52:07;;;;;;;0.70;0.63;;;6.50;99.90;;;;;;4974415;28;20627;-73
2022/02/16 06:54:32;;;;;;;2.73;0.50;;;6.60;99.90;;;;;;4974350;28;20666;-71
2022/02/16 06:56:59;;;;;;;0.40;0.40;;;6.60;99.90;;;;;;4974496;28;20190;-71
2022/02/16 06:59:25;;;;;;;0.50;0.50;;;6.60;99.90;;;;;;4974393;28;20178;-72
2022/02/16 07:01:50;;;;;;;0.80;0.60;;;6.60;99.90;;;;;;4974050;28;20438;-71
2022/02/16 07:04:16;;;;;;;0.60;0.50;;;6.60;99.90;;;;;;4974170;28;20179;-72
2022/02/16 07:06:41;;;;;;;3.63;0.50;;;6.60;99.90;;;;;;4974242;28;20202;-71
2022/02/16 07:09:07;;;;;;;0.77;0.57;;;6.70;99.90;;;;;;4972707;28;20234;-72
2022/02/16 07:11:32;;;;;;;0.50;0.50;;;6.70;99.90;;;;;;4971550;28;20669;-70
2022/02/16 07:13:58;;;;;;;1.40;0.67;;;6.70;99.90;;;;;;4972841;28;20645;-72
2022/02/16 07:16:24;;;;;;;0.97;0.40;;;6.70;99.90;;;;;;4974104;28;20227;-71
2022/02/16 07:18:49;;;;;;;0.40;0.40;;;6.70;99.90;;;;;;4974201;28;20209;-71
2022/02/16 07:21:15;;;;;;;1.53;0.80;;;6.70;99.90;;;;;;4974338;28;20231;-71
2022/02/16 07:23:41;;;;;;;1.63;0.50;;;6.70;99.90;;;;;;4973710;28;20710;-71
2022/02/16 07:26:09;;;;;;;2.53;0.60;;;6.60;99.90;;;;;;4973871;28;20183;-72
2022/02/16 07:28:35;;;;;;;0.60;0.53;;;6.60;99.90;;;;;;4973570;28;20461;-71
2022/02/16 07:31:00;;;;;;;1.70;0.50;;;6.70;99.90;;;;;;4973871;28;20455;-71
2022/02/16 07:33:26;;;;;;;0.70;0.47;;;6.60;99.90;;;;;;4973448;28;20752;-71
2022/02/16 07:35:52;;;;;;;0.50;0.40;;;6.60;99.90;;;;;;4973886;28;20190;-72
2022/02/16 07:38:17;;;;;;;0.90;0.60;;;6.60;99.90;;;;;;4973718;28;20210;-72
2022/02/16 07:40:43;;;;;;;4.83;0.80;;;6.60;99.90;;;;;;4973415;28;20665;-71
2022/02/16 07:43:09;;;;;;;0.90;0.50;;;6.50;99.90;;;;;;4973359;28;20184;-72
2022/02/16 07:45:34;;;;;;;1.43;0.50;;;6.60;99.90;;;;;;4973527;28;20184;-72
2022/02/16 07:48:00;;;;;;;0.40;0.40;;;6.50;99.90;;;;;;4973359;28;20563;-72
2022/02/16 07:50:27;;;;;;;0.40;0.40;;;6.50;99.90;;;;;;4973307;28;20182;-71
2022/02/16 07:52:54;;;;;;;0.50;0.50;;;6.50;99.90;;;;;;4972999;28;20199;-71
2022/02/16 07:55:20;;;;;;;1.43;0.60;;;6.50;99.90;;;;;;4973481;28;20982;-72
2022/02/16 07:57:46;;;;;;;0.60;0.60;;;6.60;99.90;;;;;;4973471;28;20497;-71
2022/02/16 08:00:12;;;;;;;0.50;0.50;;;6.50;99.90;;;;;;4973311;28;20550;-71
2022/02/16 08:02:38;;;;;;;4.33;0.50;;;6.50;99.90;;;;;;4973158;28;20200;-70
2022/02/16 08:05:03;;;;;;;0.70;0.50;;;6.50;99.90;;;;;;4972639;28;20566;-70
2022/02/16 08:07:29;;;;;;;0.53;0.53;;;6.50;99.90;;;;;;4973218;28;20176;-72
2022/02/16 08:09:55;;;;;;;0.50;0.50;;;6.40;99.90;;;;;;4972930;28;20634;-71
2022/02/16 08:12:21;;;;;;;3.60;1.37;;;6.50;99.90;;;;;;4973044;28;20197;-71
2022/02/16 08:14:46;;;;;;;2.40;0.43;;;6.50;99.90;;;;;;4972904;28;20208;-71
2022/02/16 08:17:12;;;;;;;0.70;0.70;;;6.40;99.90;;;;;;4972844;28;20469;-70
2022/02/16 08:19:37;;;;;;;0.40;0.40;;;6.50;99.90;;;;;;4972893;28;20188;-71
2022/02/16 08:22:03;;;;;;;0.50;0.50;;;6.50;99.90;;;;;;4972734;28;20287;-71
2022/02/16 08:24:29;;;;;;;0.43;0.40;;;6.50;99.90;;;;;;4972595;28;20181;-71
2022/02/16 08:26:55;;;;;;;0.40;0.40;;;6.50;99.90;;;;;;4973038;28;20907;-72
2022/02/16 08:29:24;;;;;;;0.43;0.40;;;6.40;99.90;;;;;;4972148;28;20211;-71
2022/02/16 08:31:50;;;;;;;0.50;0.40;;;6.40;99.90;;;;;;4972483;28;20949;-71
2022/02/16 08:34:16;;;;;;;1.43;0.60;;;6.40;99.90;;;;;;4972739;28;20467;-72
2022/02/16 08:36:42;;;;;;;1.47;0.47;;;6.40;99.90;;;;;;4972714;28;20411;-71
2022/02/16 08:39:07;;;;;;;0.50;0.50;;;6.40;99.90;;;;;;4972672;28;20184;-72
2022/02/16 08:41:33;;;;;;;0.73;0.40;;;6.40;99.90;;;;;;4972405;28;20202;-71
2022/02/16 08:43:58;;;;;;;0.50;0.50;;;6.40;99.90;;;;;;4972437;28;20200;-72
2022/02/16 08:46:24;;;;;;;1.20;0.60;;;6.50;99.90;;;;;;4972771;28;20223;-70
2022/02/16 08:48:49;;;;;;;1.00;0.50;;;6.50;99.90;;;;;;4972634;28;20215;-71
2022/02/16 08:51:15;;;;;;;2.10;0.60;;;6.50;99.90;;;;;;4971619;28;20208;-71
2022/02/16 08:53:41;;;;;;;0.60;0.50;;;6.40;99.90;;;;;;4971487;28;20650;-71
2022/02/16 08:56:07;;;;;;;1.60;0.67;;;6.40;99.90;;;;;;4978789;28;20422;-71
2022/02/16 08:58:33;;;;;;;0.50;0.50;;;6.40;99.90;;;;;;4978779;28;20197;-71
2022/02/16 09:00:59;;;;;;;2.60;0.70;;;6.40;99.90;;;;;;4978677;28;20471;-71
2022/02/16 09:03:25;;;;;;;0.60;0.50;;;6.40;99.90;;;;;;4978793;28;20419;-72
2022/02/16 09:05:51;;;;;;;0.87;0.57;;;6.40;99.90;;;;;;4979096;28;20419;-71
2022/02/16 09:08:17;;;;;;;0.80;0.60;;;6.40;99.90;;;;;;4978802;28;20856;-72
2022/02/16 09:10:43;;;;;;;0.60;0.50;;;6.40;99.90;;;;;;4978521;28;20235;-72
2022/02/16 09:13:09;;;;;;;1.40;0.63;;;6.40;99.90;;;;;;4977038;28;20414;-71
2022/02/16 09:15:35;;;;;;;0.50;0.50;;;6.40;99.90;;;;;;4978673;28;20429;-71
2022/02/16 09:18:00;;;;;;;1.80;0.90;;;6.50;99.90;;;;;;4978967;28;20211;-70
2022/02/16 09:20:26;;;;;;;0.40;0.40;;;6.40;99.90;;;;;;4978395;28;20927;-71
2022/02/16 09:22:52;;;;;;;0.53;0.53;;;6.50;99.90;;;;;;4978512;28;20191;-71
2022/02/16 09:25:18;;;;;;;1.40;0.50;;;6.60;99.90;;;;;;4978583;28;20422;-72
2022/02/16 09:27:43;;;;;;;2.40;0.50;;;6.60;99.90;;;;;;4978334;28;20676;-71
2022/02/16 09:30:10;;;;;;;0.63;0.40;;;6.60;99.90;;;;;;4978603;28;20180;-71
2022/02/16 09:32:36;;;;;;;1.27;0.70;;;6.60;99.90;;;;;;4978225;28;20215;-71
2022/02/16 09:35:02;;;;;;;0.50;0.50;;;6.70;99.90;;;;;;4978572;28;20419;-69
2022/02/16 09:37:28;;;;;;;5.27;0.70;;;6.70;99.90;;;;;;4978275;28;20419;-69
2022/02/16 09:39:53;;;;;;;1.30;0.47;;;6.70;99.90;;;;;;4978670;28;20492;-68
2022/02/16 09:42:19;;;;;;;0.90;0.50;;;6.70;99.90;;;;;;4977660;28;20335;-69
2022/02/16 09:45:00;;;;;;;0.80;0.80;;;6.80;99.90;;;;;;4978086;28;20176;-70
2022/02/16 09:47:26;;;;;;;1.07;1.00;;;6.80;99.90;;;;;;4977989;28;20181;-69
2022/02/16 09:49:52;;;;;;;0.50;0.50;;;6.90;99.90;;;;;;4978485;28;20428;-69
2022/02/16 09:52:20;;;;;;;0.60;0.50;;;6.90;99.90;;;;;;4976722;28;20457;-70
2022/02/16 09:54:46;;;;;;;0.50;0.40;;;6.90;99.90;;;;;;4977915;28;21037;-69
2022/02/16 09:57:11;;;;;;;0.50;0.50;;;6.90;99.90;;;;;;4977630;28;20802;-69
2022/02/16 09:59:37;;;;;;;1.07;0.50;;;6.90;99.90;;;;;;4978058;28;20412;-68
2022/02/16 10:02:08;;;;;;;0.40;0.40;;;7.00;99.90;;;;;;4978701;28;20208;-68
2022/02/16 10:04:36;;;;;;;0.60;0.50;;;7.10;99.90;;;;;;4978612;28;20206;-68
2022/02/16 10:07:22;;;;;;;0.40;0.40;;;7.10;99.90;;;;;;4974409;28;20448;-68
2022/02/16 10:09:48;;;;;;;0.60;0.40;;;7.20;99.90;;;;;;4975607;28;20783;-68
2022/02/16 10:12:14;;;;;;;0.50;0.50;;;7.30;99.90;;;;;;4975349;28;20461;-68
2022/02/16 10:14:41;;;;;;;0.50;0.50;;;7.30;99.90;;;;;;4974667;28;20540;-69
2022/02/16 10:17:17;;;;;;;0.50;0.50;;;7.40;99.90;;;;;;4975134;28;20494;-68
2022/02/16 10:19:57;;;;;;;4.70;0.50;;;7.40;99.90;;;;;;4975163;28;20185;-68
2022/02/16 10:22:25;;;;;;;0.50;0.50;;;7.50;99.90;;;;;;4975381;28;20818;-70
2022/02/16 10:24:51;;;;;;;0.50;0.50;;;7.50;99.90;;;;;;4975167;28;20420;-68
2022/02/16 10:27:18;;;;;;;0.40;0.40;;;7.60;99.90;;;;;;4975075;28;20420;-68
2022/02/16 10:29:44;;;;;;;2.30;0.50;;;7.70;99.90;;;;;;4973278;28;20477;-69
2022/02/16 10:32:25;;;;;;;1.70;0.40;;;7.70;99.90;;;;;;4972810;28;20508;-69
2022/02/16 10:34:56;;;;;;;2.07;0.50;;;7.80;99.90;;;;;;4974880;28;20790;-69
2022/02/16 10:37:30;;;;;;;0.53;0.50;;;7.80;99.90;;;;;;4973373;28;20487;-69
2022/02/16 10:40:10;;;;;;;2.00;0.50;;;7.90;99.90;;;;;;4973387;28;20426;-69
2022/02/16 10:42:37;;;;;;;1.00;0.70;;;8.00;99.90;;;;;;4973085;28;20957;-68
2022/02/16 10:45:09;;;;;;;0.50;0.50;;;8.00;99.90;;;;;;4973154;28;20432;-68
2022/02/16 10:48:01;;;;;;;0.73;0.73;;;8.10;99.90;;;;;;4973813;28;20442;-69
2022/02/16 10:50:32;;;;;;;0.60;0.50;;;8.20;99.90;;;;;;4974232;28;20407;-69
2022/02/16 10:53:03;;;;;;;0.50;0.50;;;8.30;99.90;;;;;;4974126;28;20418;-69
2022/02/16 10:55:58;;;;;;;0.50;0.50;;;8.30;99.90;;;;;;4974572;28;20421;-69
2022/02/16 10:58:26;;;;;;;0.70;0.70;;;8.50;99.90;;;;;;4965764;28;20429;-69
2022/02/16 11:00:54;;;;;;;0.40;0.40;;;8.60;99.90;;;;;;4974213;28;20446;-68
2022/02/16 11:03:31;;;;;;;0.40;0.40;;;8.80;99.90;;;;;;4973991;28;20432;-69
2022/02/16 11:06:02;;;;;;;0.47;0.40;;;8.90;99.90;;;;;;4974414;28;20499;-68
2022/02/16 11:08:30;;;;;;;0.70;0.50;;;9.00;99.90;;;;;;4974150;28;20459;-70
2022/02/16 11:10:57;;;;;;;0.53;0.50;;;9.00;99.90;;;;;;4973857;28;20958;-69
2022/02/16 11:13:26;;;;;;;0.70;0.50;;;9.10;99.90;;;;;;4973927;28;20924;-69
2022/02/16 11:15:53;;;;;;;0.50;0.50;;;9.10;99.90;;;;;;4974170;28;20833;-70
2022/02/16 11:18:21;;;;;;;0.50;0.50;;;9.20;99.90;;;;;;4973896;28;20419;-70
2022/02/16 11:21:07;;;;;;;0.60;0.60;;;9.30;99.90;;;;;;4973805;28;20787;-69
2022/02/16 11:23:44;;;;;;;1.87;0.60;;;9.40;99.90;;;;;;4973722;28;20448;-69
2022/02/16 11:26:51;;;;;;;1.37;0.50;;;9.50;99.90;;;;;;4973890;28;20805;-69
2022/02/16 11:29:26;;;;;;;0.40;0.40;;;9.70;99.90;;;;;;4973813;28;20967;-69
2022/02/16 11:32:13;;;;;;;0.40;0.40;;;9.80;99.90;;;;;;4973621;28;20472;-69
2022/02/16 11:34:39;;;;;;;1.33;0.50;;;9.80;99.90;;;;;;4973463;28;20558;-69
2022/02/16 11:37:05;;;;;;;0.70;0.70;;;10.00;99.90;;;;;;4973648;28;20412;-69
2022/02/16 11:39:58;;;;;;;0.57;0.50;;;10.00;99.90;;;;;;4973500;28;21042;-70
2022/02/16 11:42:46;;;;;;;1.07;0.40;;;10.10;99.90;;;;;;4969089;28;20446;-70
2022/02/16 11:45:12;;;;;;;1.63;0.50;;;10.20;99.90;;;;;;4973631;28;20420;-70
2022/02/16 11:47:41;;;;;;;0.60;0.50;;;10.30;99.90;;;;;;4973404;28;20994;-69
2022/02/16 11:50:09;;;;;;;0.53;0.50;;;10.30;99.90;;;;;;4973560;28;20413;-69
2022/02/16 11:52:37;;;;;;;1.53;0.60;;;10.30;99.90;;;;;;4973193;28;20477;-69
2022/02/16 11:55:05;;;;;;;0.50;0.50;;;10.30;99.90;;;;;;4973230;28;20422;-69
2022/02/16 11:57:30;;;;;;;0.43;0.40;;;10.20;99.90;;;;;;4973347;28;20419;-69
2022/02/16 12:00:08;;;;;;;0.50;0.40;;;10.20;99.90;;;;;;4973766;28;20468;-70
2022/02/16 12:02:54;;;;;;;0.40;0.40;;;10.30;99.90;;;;;;4973035;28;20194;-69
2022/02/16 12:05:39;;;;;;;0.60;0.50;;;10.30;99.90;;;;;;4972831;28;20426;-70
2022/02/16 12:08:26;;;;;;;0.40;0.30;;;10.30;99.90;;;;;;4973217;28;20469;-70
2022/02/16 12:10:55;;;;;;;0.50;0.40;;;10.30;99.90;;;;;;4972497;28;20440;-69
2022/02/16 12:13:31;;;;;;;0.53;0.40;;;10.40;99.90;;;;;;4972743;28;20426;-70
2022/02/16 12:16:10;;;;;;;0.50;0.40;;;10.30;99.90;;;;;;4973045;28;20408;-70
2022/02/16 12:18:38;;;;;;;1.03;0.50;;;10.30;99.90;;;;;;4972790;28;20509;-70
2022/02/16 12:21:05;;;;;;;0.40;0.40;;;10.20;99.90;;;;;;4972690;28;20429;-69
2022/02/16 12:23:35;;;;;;;0.70;0.70;;;10.20;99.90;;;;;;4972630;28;20788;-69
2022/02/16 12:26:08;;;;;;;1.13;0.47;;;10.30;99.90;;;;;;4972898;28;20924;-70
2022/02/16 12:28:54;;;;;;;0.97;0.40;;;10.30;99.90;;;;;;4972222;28;20536;-69
2022/02/16 12:31:23;;;;;;;0.40;0.40;;;10.20;99.90;;;;;;4973010;28;20468;-69
2022/02/16 12:34:08;;;;;;;0.60;0.50;;;10.10;99.90;;;;;;4972876;28;20425;-70
2022/02/16 12:36:37;;;;;;;0.50;0.50;;;10.00;99.90;;;;;;4972882;28;20930;-70
2022/02/16 12:39:06;;;;;;;0.40;0.40;;;10.00;99.90;;;;;;4972636;28;20472;-70
2022/02/16 12:41:33;;;;;;;0.40;0.40;;;10.00;99.90;;;;;;4972399;28;20515;-70
2022/02/16 12:44:02;;;;;;;4.50;0.40;;;10.00;99.90;;;;;;4972606;28;20897;-70
2022/02/16 12:46:30;;;;;;;0.40;0.40;;;10.10;99.90;;;;;;4971427;28;20434;-70
2022/02/16 12:48:57;;;;;;;0.40;0.40;;;10.10;99.90;;;;;;4972291;28;20464;-71
2022/02/16 12:51:28;;;;;;;0.43;0.33;;;10.20;99.90;;;;;;4972004;28;20439;-70
2022/02/16 12:53:57;;;;;;;0.40;0.30;;;10.20;99.90;;;;;;4972441;28;20423;-69
2022/02/16 12:56:23;;;;;;;0.40;0.40;;;10.20;99.90;;;;;;4972947;28;20855;-71
2022/02/16 12:58:50;;;;;;;0.40;0.40;;;10.20;99.90;;;;;;4972890;28;20449;-70
2022/02/16 13:01:15;;;;;;;0.40;0.40;;;10.20;99.90;;;;;;4972547;28;20524;-70
2022/02/16 13:03:41;;;;;;;1.80;1.00;;;10.30;99.90;;;;;;4972139;28;21007;-70
2022/02/16 13:06:07;;;;;;;0.50;0.40;;;10.30;99.90;;;;;;4977953;28;20268;-70
2022/02/16 13:08:33;;;;;;;0.43;0.40;;;10.30;99.90;;;;;;4991273;28;20212;-71
2022/02/16 13:10:59;;;;;;;0.40;0.40;;;10.30;99.90;;;;;;4992953;28;20440;-70
2022/02/16 13:13:30;;;;;;;1.50;0.30;;;10.40;99.90;;;;;;4991747;28;20488;-71
2022/02/16 13:15:58;;;;;;;0.93;0.50;;;10.40;99.90;;;;;;4991933;28;20185;-71
2022/02/16 13:18:33;;;;;;;0.50;0.40;;;10.40;99.90;;;;;;4991676;28;20459;-71
2022/02/16 13:21:14;;;;;;;0.40;0.40;;;10.50;99.90;;;;;;4991441;28;20881;-71
2022/02/16 13:23:40;;;;;;;0.60;0.47;;;10.60;99.90;;;;;;4975747;28;20424;-72
2022/02/16 13:26:08;;;;;;;0.83;0.43;;;10.60;99.90;;;;;;4972132;28;20643;-71
2022/02/16 13:28:35;;;;;;;0.90;0.50;;;10.70;99.90;;;;;;4972154;28;20466;-71
2022/02/16 13:31:28;;;;;;;0.70;0.50;;;10.80;99.90;;;;;;4971949;28;20488;-70
2022/02/16 13:33:56;;;;;;;1.73;0.40;;;10.80;99.90;;;;;;4971948;28;20784;-70
2022/02/16 13:36:26;;;;;;;1.37;0.50;;;10.90;99.90;;;;;;4972091;28;20432;-70
2022/02/16 13:39:11;;;;;;;1.00;0.40;;;11.00;99.90;;;;;;4969574;28;20442;-74
2022/02/16 13:41:37;;;;;;;0.60;0.40;;;11.00;99.90;;;;;;4972227;28;20981;-70
2022/02/16 13:44:03;;;;;;;0.80;0.50;;;11.10;99.90;;;;;;4973071;28;20426;-70
2022/02/16 13:46:46;;;;;;;0.50;0.40;;;11.10;99.90;;;;;;4972492;28;20425;-71
2022/02/16 13:49:18;;;;;;;0.40;0.40;;;11.10;99.90;;;;;;4975809;28;20456;-70
2022/02/16 13:52:03;;;;;;;0.60;0.40;;;11.10;99.90;;;;;;4975519;28;20446;-70
2022/02/16 13:54:31;;;;;;;0.40;0.40;;;11.10;99.90;;;;;;4975308;28;20415;-70
2022/02/16 13:57:05;;;;;;;0.50;0.40;;;11.10;99.90;;;;;;4975356;28;20419;-74
2022/02/16 13:59:32;;;;;;;1.47;0.40;;;11.10;99.90;;;;;;4969503;28;20433;-70
2022/02/16 14:02:12;;;;;;;0.40;0.40;;;11.10;99.90;;;;;;4974487;28;21139;-70
2022/02/16 14:04:50;;;;;;;0.50;0.40;;;11.20;99.90;;;;;;4971599;28;20440;-71
2022/02/16 14:07:16;;;;;;;0.40;0.30;;;11.30;99.90;;;;;;4974570;28;20430;-71
2022/02/16 14:09:43;;;;;;;0.40;0.30;;;11.20;99.90;;;;;;4974768;28;20568;-72
2022/02/16 14:12:09;;;;;;;0.40;0.40;;;11.20;99.90;;;;;;4975447;28;20967;-71
2022/02/16 14:14:36;;;;;;;2.13;0.40;;;11.20;99.90;;;;;;4974870;28;20415;-71
2022/02/16 14:17:02;;;;;;;0.40;0.40;;;11.20;99.90;;;;;;4975471;28;20428;-71
2022/02/16 14:19:27;;;;;;;0.40;0.30;;;11.20;99.90;;;;;;4974851;28;20427;-71
2022/02/16 14:21:58;;;;;;;0.40;0.40;;;11.20;99.90;;;;;;4975081;28;20203;-71
2022/02/16 14:24:25;;;;;;;0.40;0.40;;;11.20;99.90;;;;;;4974914;28;20187;-71
2022/02/16 14:26:50;;;;;;;0.40;0.30;;;11.10;99.90;;;;;;4975318;28;20423;-71
2022/02/16 14:29:17;;;;;;;0.40;0.40;;;11.10;99.90;;;;;;4974997;28;20470;-70
2022/02/16 14:31:42;;;;;;;0.50;0.50;;;11.10;99.90;;;;;;4974602;28;20214;-70
2022/02/16 14:34:08;;;;;;;0.70;0.40;;;11.10;99.90;;;;;;4974894;28;20419;-71
2022/02/16 14:36:36;;;;;;;0.50;0.40;;;11.10;99.90;;;;;;4974882;28;20176;-71
2022/02/16 14:39:03;;;;;;;0.40;0.40;;;11.10;99.90;;;;;;4974946;28;20179;-70
2022/02/16 14:41:28;;;;;;;0.60;0.60;;;11.10;99.90;;;;;;4973394;28;20470;-70
2022/02/16 14:43:54;;;;;;;1.17;0.40;;;11.00;99.90;;;;;;4974702;28;20763;-69
2022/02/16 14:46:19;;;;;;;0.40;0.40;;;11.00;99.90;;;;;;4974834;28;20260;-70
2022/02/16 14:48:45;;;;;;;0.30;0.30;;;11.00;99.90;;;;;;4974541;28;20712;-70
2022/02/16 14:51:10;;;;;;;0.40;0.30;;;11.00;99.90;;;;;;4974309;28;20282;-71
2022/02/16 14:53:36;;;;;;;0.63;0.50;;;11.00;99.90;;;;;;4974026;28;20189;-70
2022/02/16 14:56:02;;;;;;;0.97;0.40;;;11.00;99.90;;;;;;4973577;28;20552;-71
2022/02/16 14:58:27;;;;;;;1.00;0.40;;;11.10;99.90;;;;;;4974343;28;20177;-72
2022/02/16 15:00:53;;;;;;;0.40;0.40;;;11.10;99.90;;;;;;4974513;28;20628;-71
2022/02/16 15:03:18;;;;;;;0.50;0.40;;;11.10;99.90;;;;;;4974185;28;20191;-70
2022/02/16 15:05:44;;;;;;;0.37;0.37;;;11.10;99.90;;;;;;4974410;28;20188;-70
2022/02/16 15:08:09;;;;;;;0.50;0.40;;;11.10;99.90;;;;;;4974394;28;20264;-70
2022/02/16 15:10:35;;;;;;;0.40;0.40;;;11.00;99.90;;;;;;4974332;28;20175;-70
2022/02/16 15:13:00;;;;;;;0.50;0.40;;;11.00;99.90;;;;;;4973971;28;20175;-70
2022/02/16 15:15:26;;;;;;;0.97;0.90;;;10.90;99.90;;;;;;4974256;28;20187;-70
2022/02/16 15:17:51;;;;;;;0.47;0.40;;;10.90;99.90;;;;;;4974048;28;20211;-71
2022/02/16 15:20:17;;;;;;;0.47;0.40;;;10.80;99.90;;;;;;4973917;28;20656;-70
2022/02/16 15:22:42;;;;;;;0.40;0.40;;;10.80;99.90;;;;;;4973821;28;20195;-70
2022/02/16 15:25:08;;;;;;;0.40;0.40;;;10.80;99.90;;;;;;4973736;28;20180;-71
2022/02/16 15:27:34;;;;;;;1.53;0.40;;;10.80;99.90;;;;;;4973909;28;20228;-71
2022/02/16 15:30:00;;;;;;;0.50;0.50;;;10.80;99.90;;;;;;4973593;28;20462;-71
2022/02/16 15:32:26;;;;;;;0.50;0.40;;;10.80;99.90;;;;;;4973723;28;20225;-71
2022/02/16 15:34:55;;;;;;;0.50;0.50;;;10.80;99.90;;;;;;4973504;28;20430;-70
2022/02/16 15:37:21;;;;;;;0.40;0.30;;;10.80;99.90;;;;;;4973881;28;20549;-70
2022/02/16 15:39:47;;;;;;;0.40;0.30;;;10.80;99.90;;;;;;4973570;28;20501;-71
2022/02/16 15:42:14;;;;;;;0.50;0.40;;;10.80;99.90;;;;;;4973684;28;21022;-71
2022/02/16 15:44:40;;;;;;;0.70;0.50;;;10.90;99.90;;;;;;4973238;28;20179;-71
2022/02/16 15:47:06;;;;;;;0.40;0.40;;;10.90;99.90;;;;;;4973813;28;20935;-71
2022/02/16 15:49:32;;;;;;;0.87;0.40;;;10.80;99.90;;;;;;4973245;28;20289;-70
2022/02/16 15:51:58;;;;;;;0.50;0.50;;;10.80;99.90;;;;;;4973458;28;20427;-70
2022/02/16 15:54:23;;;;;;;0.40;0.40;;;10.80;99.90;;;;;;4973289;28;20464;-70
2022/02/16 15:56:49;;;;;;;0.30;0.30;;;10.90;99.90;;;;;;4973445;28;20730;-70
2022/02/16 15:59:16;;;;;;;0.60;0.50;;;10.80;99.90;;;;;;4973580;28;20190;-71
2022/02/16 16:01:41;;;;;;;2.20;0.40;;;10.80;99.90;;;;;;4973073;28;20207;-70
2022/02/16 16:04:07;;;;;;;0.40;0.40;;;10.80;99.90;;;;;;4972288;28;20422;-70
2022/02/16 16:06:33;;;;;;;0.80;0.57;;;10.80;99.90;;;;;;4973106;28;20589;-70
2022/02/16 16:08:59;;;;;;;0.40;0.40;;;10.80;99.90;;;;;;4973303;28;20214;-71
2022/02/16 16:11:24;;;;;;;0.40;0.40;;;10.80;99.90;;;;;;4972989;28;20291;-70
2022/02/16 16:13:50;;;;;;;0.40;0.40;;;10.80;99.90;;;;;;4972876;28;20423;-71
2022/02/16 16:16:15;;;;;;;0.40;0.40;;;10.80;99.90;;;;;;4973364;28;20184;-70
2022/02/16 16:18:41;;;;;;;0.60;0.50;;;10.80;99.90;;;;;;4973045;28;20187;-71
2022/02/16 16:21:07;;;;;;;0.50;0.40;;;10.80;99.90;;;;;;4972941;28;20203;-70
2022/02/16 16:23:32;;;;;;;0.70;0.50;;;10.80;99.90;;;;;;4972544;28;20419;-71
2022/02/16 16:25:58;;;;;;;0.40;0.40;;;10.80;99.90;;;;;;4971860;28;20184;-70
2022/02/16 16:28:24;;;;;;;1.00;0.60;;;10.80;99.90;;;;;;4972868;28;20207;-71
2022/02/16 16:30:49;;;;;;;0.40;0.40;;;10.80;99.90;;;;;;4972567;28;20568;-71
2022/02/16 16:33:15;;;;;;;0.60;0.47;;;10.80;99.90;;;;;;4972734;28;20676;-72
2022/02/16 16:35:41;;;;;;;0.40;0.40;;;10.70;99.90;;;;;;4972825;28;20183;-71
2022/02/16 16:38:08;;;;;;;0.40;0.40;;;10.80;99.90;;;;;;4972817;28;20183;-71
2022/02/16 16:40:34;;;;;;;0.50;0.47;;;10.80;99.90;;;;;;4972617;28;20419;-71
2022/02/16 16:43:00;;;;;;;0.60;0.60;;;10.80;99.90;;;;;;4972518;28;20427;-70
2022/02/16 16:45:26;;;;;;;1.07;1.07;;;10.80;99.90;;;;;;4972729;28;20927;-70
2022/02/16 16:47:51;;;;;;;0.60;0.50;;;10.70;99.90;;;;;;4972678;28;20476;-71
2022/02/16 16:50:17;;;;;;;0.60;0.50;;;10.70;99.90;;;;;;4972566;28;20174;-71
2022/02/16 16:52:43;;;;;;;0.50;0.40;;;10.70;99.90;;;;;;4972521;28;20311;-70
2022/02/16 16:55:09;;;;;;;0.40;0.40;;;10.70;99.90;;;;;;4972581;28;20471;-71
2022/02/16 16:57:35;;;;;;;0.50;0.50;;;10.70;99.90;;;;;;4972713;28;20530;-71
2022/02/16 17:00:01;;;;;;;0.50;0.40;;;10.70;99.90;;;;;;4972450;28;20226;-71
2022/02/16 17:02:27;;;;;;;1.10;0.50;;;10.70;99.90;;;;;;4972461;28;20771;-71
2022/02/16 17:04:52;;;;;;;0.50;0.50;;;10.60;99.90;;;;;;4972199;28;20425;-71
2022/02/16 17:07:19;;;;;;;0.50;0.50;;;10.60;99.90;;;;;;4972634;28;20659;-72
2022/02/16 17:09:47;;;;;;;0.47;0.47;;;10.70;99.90;;;;;;4972344;28;20239;-73
2022/02/16 17:12:14;;;;;;;2.87;0.50;;;10.70;99.90;;;;;;4972811;28;20959;-73
2022/02/16 17:14:39;;;;;;;0.50;0.40;;;10.70;99.90;;;;;;4971108;28;20456;-75
2022/02/16 17:17:05;;;;;;;2.30;0.40;;;10.70;99.90;;;;;;4976566;28;20947;-72
2022/02/16 17:19:31;;;;;;;0.50;0.40;;;10.70;99.90;;;;;;4976185;28;20211;-73
2022/02/16 17:21:56;;;;;;;1.77;0.50;;;10.70;99.90;;;;;;4975244;28;20261;-73
2022/02/16 17:24:22;;;;;;;0.50;0.47;;;10.70;99.90;;;;;;4976164;28;20189;-73
2022/02/16 17:26:47;;;;;;;0.43;0.40;;;10.70;99.90;;;;;;4975448;28;20180;-73